createdAt,value
2023-02-21T00:00:30.406Z,2.94
2023-02-21T00:01:17.557Z,3.01
2023-02-21T00:02:04.694Z,3.01
2023-02-21T00:02:51.931Z,3.05
2023-02-21T00:03:39.146Z,3.06
2023-02-21T00:04:26.431Z,3.10
2023-02-21T00:05:13.757Z,3.10
2023-02-21T00:06:01.122Z,3.14
2023-02-21T00:06:48.290Z,3.17
2023-02-21T00:07:36.077Z,3.21
2023-02-21T00:08:23.308Z,3.21
2023-02-21T00:09:10.638Z,3.23
2023-02-21T00:09:57.750Z,3.26
2023-02-21T00:10:44.906Z,3.28
2023-02-21T00:11:32.117Z,3.25
2023-02-21T00:12:22.271Z,3.26
2023-02-21T00:13:09.390Z,3.28
2023-02-21T00:13:56.699Z,3.29
2023-02-21T00:14:43.873Z,3.32
2023-02-21T00:15:31.198Z,3.32
2023-02-21T00:16:18.428Z,3.30
2023-02-21T00:17:05.587Z,3.31
2023-02-21T00:17:52.731Z,3.33
2023-02-21T00:18:39.956Z,3.37
2023-02-21T00:19:27.201Z,3.38
2023-02-21T00:20:16.706Z,3.38
2023-02-21T00:21:05.123Z,3.39
2023-02-21T00:21:52.378Z,3.41
2023-02-21T00:22:39.512Z,3.41
2023-02-21T00:23:27.062Z,3.42
2023-02-21T00:24:14.182Z,3.44
2023-02-21T00:25:01.408Z,3.41
2023-02-21T00:25:48.515Z,3.39
2023-02-21T00:26:37.126Z,3.36
2023-02-21T00:27:26.832Z,3.37
2023-02-21T00:28:16.007Z,3.33
2023-02-21T00:29:03.192Z,3.30
2023-02-21T00:29:50.392Z,3.31
2023-02-21T00:30:37.676Z,3.32
2023-02-21T00:31:24.966Z,3.35
2023-02-21T00:32:12.288Z,3.36
2023-02-21T00:32:59.578Z,3.36
2023-02-21T00:33:46.835Z,3.36
2023-02-21T00:34:34.159Z,3.34
2023-02-21T00:35:21.540Z,3.39
2023-02-21T00:36:08.705Z,3.38
2023-02-21T00:36:55.913Z,3.37
2023-02-21T00:37:43.200Z,3.34
2023-02-21T00:38:30.347Z,3.34
2023-02-21T00:39:17.519Z,3.32
2023-02-21T00:40:04.693Z,3.33
2023-02-21T00:40:52.214Z,3.35
2023-02-21T00:41:39.368Z,3.33
2023-02-21T00:42:29.391Z,3.35
2023-02-21T00:43:16.923Z,3.33
2023-02-21T00:44:04.694Z,3.34
2023-02-21T00:44:51.832Z,3.35
2023-02-21T00:45:39.022Z,3.35
2023-02-21T00:46:26.162Z,3.37
2023-02-21T00:47:14.093Z,3.34
2023-02-21T00:48:01.237Z,3.33
2023-02-21T00:48:48.487Z,3.31
2023-02-21T00:49:35.746Z,3.29
2023-02-21T00:50:23.265Z,3.32
2023-02-21T00:51:10.477Z,3.31
2023-02-21T00:51:57.624Z,3.30
2023-02-21T00:52:44.740Z,3.28
2023-02-21T00:53:32.054Z,3.28
2023-02-21T00:54:19.389Z,3.28
2023-02-21T00:55:06.569Z,3.30
2023-02-21T00:55:53.693Z,3.23
2023-02-21T00:56:41.012Z,3.23
2023-02-21T00:57:30.895Z,3.24
2023-02-21T00:58:18.018Z,3.22
2023-02-21T00:59:05.626Z,3.23
2023-02-21T00:59:52.796Z,3.29
2023-02-21T01:00:41.145Z,3.29
2023-02-21T01:01:28.392Z,3.32
2023-02-21T01:02:15.601Z,3.29
2023-02-21T01:03:02.855Z,3.32
2023-02-21T01:03:51.454Z,3.32
2023-02-21T01:04:40.306Z,3.32
2023-02-21T01:05:27.537Z,3.33
2023-02-21T01:06:14.757Z,3.34
2023-02-21T01:07:05.483Z,3.38
2023-02-21T01:07:52.796Z,3.42
2023-02-21T01:08:39.916Z,3.42
2023-02-21T01:09:27.218Z,3.42
2023-02-21T01:10:14.365Z,3.44
2023-02-21T01:11:03.323Z,3.44
2023-02-21T01:11:50.475Z,3.46
2023-02-21T01:12:40.324Z,3.46
2023-02-21T01:13:27.532Z,3.45
2023-02-21T01:14:14.737Z,3.45
2023-02-21T01:15:01.988Z,3.49
2023-02-21T01:15:49.241Z,3.46
2023-02-21T01:16:36.387Z,3.46
2023-02-21T01:17:23.699Z,3.48
2023-02-21T01:18:10.895Z,3.50
2023-02-21T01:18:58.146Z,3.48
2023-02-21T01:19:45.319Z,3.48
2023-02-21T01:20:32.587Z,3.49
2023-02-21T01:21:19.866Z,3.50
2023-02-21T01:22:07.153Z,3.51
2023-02-21T01:22:54.315Z,3.50
2023-02-21T01:23:41.518Z,3.50
2023-02-21T01:24:32.875Z,3.51
2023-02-21T01:25:20.672Z,3.50
2023-02-21T01:26:07.952Z,3.50
2023-02-21T01:26:55.090Z,3.56
2023-02-21T01:27:44.977Z,3.53
2023-02-21T01:28:32.211Z,3.56
2023-02-21T01:29:19.503Z,3.53
2023-02-21T01:30:06.681Z,3.59
2023-02-21T01:30:53.879Z,3.61
2023-02-21T01:31:41.118Z,3.56
2023-02-21T01:32:28.424Z,3.56
2023-02-21T01:33:15.599Z,3.59
2023-02-21T01:34:02.717Z,3.59
2023-02-21T01:34:50.171Z,3.62
2023-02-21T01:35:37.326Z,3.61
2023-02-21T01:36:26.224Z,3.62
2023-02-21T01:37:14.984Z,3.57
2023-02-21T01:38:02.291Z,3.58
2023-02-21T01:38:50.229Z,3.55
2023-02-21T01:39:37.360Z,3.53
2023-02-21T01:40:29.635Z,3.52
2023-02-21T01:41:17.287Z,3.55
2023-02-21T01:42:04.434Z,3.54
2023-02-21T01:42:54.134Z,3.56
2023-02-21T01:43:44.135Z,3.54
2023-02-21T01:44:47.763Z,3.55
2023-02-21T01:45:58.146Z,3.55
2023-02-21T01:46:45.550Z,3.55
2023-02-21T01:47:33.281Z,3.53
2023-02-21T01:48:21.270Z,3.54
2023-02-21T01:49:10.445Z,3.55
2023-02-21T01:49:57.736Z,3.55
2023-02-21T01:50:47.572Z,3.56
2023-02-21T01:51:40.693Z,3.55
2023-02-21T01:52:27.927Z,3.57
2023-02-21T01:53:16.638Z,3.58
2023-02-21T01:54:04.513Z,3.59
2023-02-21T01:55:05.428Z,3.55
2023-02-21T01:55:55.599Z,3.54
2023-02-21T01:56:43.655Z,3.55
2023-02-21T01:57:33.230Z,3.54
2023-02-21T01:58:22.997Z,3.58
2023-02-21T01:59:14.667Z,3.54
2023-02-21T02:00:02.631Z,3.52
2023-02-21T02:01:00.994Z,3.52
2023-02-21T02:01:53.622Z,3.52
2023-02-21T02:02:45.946Z,3.54
2023-02-21T02:03:35.846Z,3.54
2023-02-21T02:04:23.278Z,3.54
2023-02-21T02:05:11.024Z,3.51
2023-02-21T02:06:01.488Z,3.52
2023-02-21T02:06:48.695Z,3.52
2023-02-21T02:07:36.428Z,3.53
2023-02-21T02:08:23.582Z,3.51
2023-02-21T02:09:10.958Z,3.51
2023-02-21T02:09:58.173Z,3.48
2023-02-21T02:10:45.514Z,3.51
2023-02-21T02:11:56.046Z,3.47
2023-02-21T02:12:50.935Z,3.44
2023-02-21T02:13:48.959Z,3.42
2023-02-21T02:14:47.262Z,3.42
2023-02-21T02:15:34.456Z,3.41
2023-02-21T02:16:13.923Z,3.43
2023-02-21T02:16:49.795Z,3.44
2023-02-21T02:17:35.620Z,3.45
2023-02-21T02:18:27.960Z,3.45
2023-02-21T02:19:54.206Z,3.48
2023-02-21T02:20:58.726Z,3.44
2023-02-21T02:22:14.543Z,3.39
2023-02-21T02:23:31.217Z,3.36
2023-02-21T02:24:33.655Z,3.36
2023-02-21T02:25:20.804Z,3.36
2023-02-21T02:26:32.105Z,3.34
2023-02-21T02:27:26.658Z,3.34
2023-02-21T02:28:20.316Z,3.38
2023-02-21T02:29:15.857Z,3.34
2023-02-21T02:30:33.207Z,3.39
2023-02-21T02:31:23.761Z,3.38
2023-02-21T02:32:20.564Z,3.43
2023-02-21T02:33:37.201Z,3.39
2023-02-21T02:34:44.039Z,3.41
2023-02-21T02:35:21.290Z,3.43
2023-02-21T02:35:58.234Z,3.44
2023-02-21T02:36:41.001Z,3.41
2023-02-21T02:37:21.921Z,3.41
2023-02-21T02:38:01.659Z,3.40
2023-02-21T02:38:41.298Z,3.40
2023-02-21T02:39:24.716Z,3.41
2023-02-21T02:40:06.575Z,3.40
2023-02-21T02:40:47.507Z,3.44
2023-02-21T02:41:28.045Z,3.48
2023-02-21T02:42:14.419Z,3.50
2023-02-21T02:42:58.788Z,3.55
2023-02-21T02:43:34.433Z,3.62
2023-02-21T02:44:16.484Z,3.69
2023-02-21T02:44:53.665Z,3.71
2023-02-21T02:45:32.631Z,3.74
2023-02-21T02:46:11.837Z,3.80
2023-02-21T02:46:45.717Z,3.81
2023-02-21T02:47:25.416Z,3.84
2023-02-21T02:48:03.740Z,3.85
2023-02-21T02:48:42.220Z,3.85
2023-02-21T02:49:19.839Z,3.85
2023-02-21T02:50:00.744Z,3.83
2023-02-21T02:50:34.480Z,3.85
2023-02-21T02:51:11.889Z,3.84
2023-02-21T02:51:47.218Z,3.85
2023-02-21T02:52:19.566Z,3.87
2023-02-21T02:52:52.840Z,3.90
2023-02-21T02:53:30.992Z,3.92
2023-02-21T02:54:05.342Z,3.91
2023-02-21T02:54:37.594Z,3.94
2023-02-21T02:55:28.552Z,3.89
2023-02-21T02:56:02.393Z,3.91
2023-02-21T02:56:38.999Z,3.92
2023-02-21T02:57:14.708Z,3.94
2023-02-21T02:57:48.960Z,3.90
2023-02-21T02:58:25.869Z,3.93
2023-02-21T02:59:04.402Z,3.93
2023-02-21T02:59:38.233Z,3.95
2023-02-21T03:00:12.220Z,3.96
2023-02-21T03:00:55.904Z,3.98
2023-02-21T03:02:05.405Z,3.99
2023-02-21T03:03:01.822Z,3.94
2023-02-21T03:03:51.940Z,3.96
2023-02-21T03:04:43.285Z,3.97
2023-02-21T03:05:33.162Z,3.93
2023-02-21T03:06:16.484Z,3.91
2023-02-21T03:07:00.490Z,3.92
2023-02-21T03:07:42.577Z,3.93
2023-02-21T03:08:25.594Z,3.92
2023-02-21T03:09:06.929Z,3.95
2023-02-21T03:09:53.864Z,3.93
2023-02-21T03:10:37.958Z,3.95
2023-02-21T03:11:17.346Z,3.93
2023-02-21T03:11:57.891Z,3.93
2023-02-21T03:12:36.082Z,3.87
2023-02-21T03:13:16.741Z,3.87
2023-02-21T03:13:51.717Z,3.85
2023-02-21T03:14:37.917Z,3.90
2023-02-21T03:15:17.881Z,3.88
2023-02-21T03:15:56.039Z,3.89
2023-02-21T03:16:36.874Z,3.95
2023-02-21T03:17:13.748Z,3.93
2023-02-21T03:17:52.081Z,3.94
2023-02-21T03:18:32.072Z,3.93
2023-02-21T03:19:08.913Z,3.93
2023-02-21T03:19:45.076Z,3.94
2023-02-21T03:20:24.970Z,3.92
2023-02-21T03:20:59.866Z,3.95
2023-02-21T03:21:39.740Z,3.95
2023-02-21T03:22:17.445Z,3.97
2023-02-21T03:22:51.134Z,4.00
2023-02-21T03:23:28.713Z,4.03
2023-02-21T03:24:04.684Z,4.01
2023-02-21T03:24:41.864Z,4.04
2023-02-21T03:25:18.033Z,4.03
2023-02-21T03:25:53.861Z,4.01
2023-02-21T03:26:30.400Z,4.01
2023-02-21T03:27:13.536Z,4.01
2023-02-21T03:28:04.849Z,3.99
2023-02-21T03:28:46.844Z,4.01
2023-02-21T03:29:23.784Z,4.00
2023-02-21T03:29:58.713Z,4.00
2023-02-21T03:30:32.742Z,4.02
2023-02-21T03:31:11.698Z,3.98
2023-02-21T03:31:48.094Z,3.99
2023-02-21T03:32:27.612Z,3.94
2023-02-21T03:33:03.900Z,3.97
2023-02-21T03:33:36.625Z,3.98
2023-02-21T03:34:12.309Z,3.99
2023-02-21T03:34:47.405Z,4.01
2023-02-21T03:35:24.274Z,4.02
2023-02-21T03:35:59.508Z,3.99
2023-02-21T03:36:34.912Z,3.99
2023-02-21T03:37:09.025Z,4.00
2023-02-21T03:37:42.916Z,4.01
2023-02-21T03:38:17.983Z,4.01
2023-02-21T03:38:50.274Z,4.00
2023-02-21T03:39:22.710Z,4.03
2023-02-21T03:39:54.911Z,4.02
2023-02-21T03:40:32.099Z,4.02
2023-02-21T03:41:07.174Z,4.04
2023-02-21T03:41:41.190Z,4.06
2023-02-21T03:42:16.171Z,4.06
2023-02-21T03:42:48.302Z,4.07
2023-02-21T03:43:23.175Z,4.07
2023-02-21T03:44:04.187Z,4.09
2023-02-21T03:44:36.341Z,4.11
2023-02-21T03:45:09.246Z,4.12
2023-02-21T03:45:45.245Z,4.10
2023-02-21T03:46:22.796Z,4.11
2023-02-21T03:46:55.148Z,4.12
2023-02-21T03:47:30.201Z,4.12
2023-02-21T03:48:04.024Z,4.12
2023-02-21T03:48:38.200Z,4.12
2023-02-21T03:49:22.471Z,4.12
2023-02-21T03:49:54.933Z,4.06
2023-02-21T03:50:29.719Z,4.10
2023-02-21T03:51:05.214Z,4.08
2023-02-21T03:51:41.505Z,4.11
2023-02-21T03:52:13.720Z,4.09
2023-02-21T03:52:45.849Z,4.08
2023-02-21T03:53:21.276Z,4.09
2023-02-21T03:53:54.027Z,4.09
2023-02-21T03:54:30.442Z,4.07
2023-02-21T03:55:07.955Z,4.06
2023-02-21T03:55:40.040Z,4.05
2023-02-21T03:56:17.739Z,4.09
2023-02-21T03:57:07.402Z,4.07
2023-02-21T03:57:45.785Z,4.08
2023-02-21T03:58:18.016Z,4.08
2023-02-21T03:58:54.658Z,4.09
2023-02-21T03:59:27.311Z,4.06
2023-02-21T03:59:59.736Z,4.10
2023-02-21T04:00:35.430Z,4.11
2023-02-21T04:01:07.899Z,4.11
2023-02-21T04:01:40.286Z,4.07
2023-02-21T04:02:15.063Z,4.11
2023-02-21T04:02:47.570Z,4.11
2023-02-21T04:03:29.642Z,4.07
2023-02-21T04:04:10.243Z,4.11
2023-02-21T04:04:43.038Z,4.15
2023-02-21T04:05:21.331Z,4.12
2023-02-21T04:05:59.047Z,4.14
2023-02-21T04:06:31.897Z,4.13
2023-02-21T04:07:04.757Z,4.11
2023-02-21T04:07:37.025Z,4.11
2023-02-21T04:08:12.113Z,4.09
2023-02-21T04:08:44.330Z,4.10
2023-02-21T04:09:16.544Z,4.07
2023-02-21T04:09:52.066Z,4.09
2023-02-21T04:10:30.637Z,4.11
2023-02-21T04:11:04.122Z,4.11
2023-02-21T04:11:41.142Z,4.12
2023-02-21T04:12:13.363Z,4.11
2023-02-21T04:12:46.071Z,4.12
2023-02-21T04:13:23.749Z,4.11
2023-02-21T04:13:56.213Z,4.08
2023-02-21T04:14:28.991Z,4.13
2023-02-21T04:15:03.729Z,4.09
2023-02-21T04:15:35.989Z,4.12
2023-02-21T04:16:08.189Z,4.12
2023-02-21T04:16:42.340Z,4.15
2023-02-21T04:17:17.760Z,4.12
2023-02-21T04:17:50.551Z,4.13
2023-02-21T04:18:23.166Z,4.15
2023-02-21T04:18:59.933Z,4.18
2023-02-21T04:19:32.234Z,4.17
2023-02-21T04:20:05.160Z,4.17
2023-02-21T04:20:43.810Z,4.17
2023-02-21T04:21:22.534Z,4.12
2023-02-21T04:21:56.645Z,4.13
2023-02-21T04:22:31.402Z,4.16
2023-02-21T04:23:04.024Z,4.17
2023-02-21T04:23:37.414Z,4.11
2023-02-21T04:24:13.249Z,4.13
2023-02-21T04:24:48.229Z,4.13
2023-02-21T04:25:21.275Z,4.16
2023-02-21T04:26:02.415Z,4.19
2023-02-21T04:26:42.436Z,4.18
2023-02-21T04:27:15.343Z,4.21
2023-02-21T04:27:55.496Z,4.19
2023-02-21T04:28:27.602Z,4.19
2023-02-21T04:29:02.331Z,4.19
2023-02-21T04:29:34.897Z,4.21
2023-02-21T04:30:08.771Z,4.21
2023-02-21T04:30:43.747Z,4.20
2023-02-21T04:31:17.026Z,4.19
2023-02-21T04:31:49.462Z,4.16
2023-02-21T04:32:25.481Z,4.18
2023-02-21T04:32:57.815Z,4.15
2023-02-21T04:33:30.047Z,4.12
2023-02-21T04:34:11.767Z,4.12
2023-02-21T04:34:47.053Z,4.13
2023-02-21T04:35:19.421Z,4.15
2023-02-21T04:35:54.592Z,4.18
2023-02-21T04:36:37.432Z,4.17
2023-02-21T04:37:10.480Z,4.13
2023-02-21T04:37:45.101Z,4.12
2023-02-21T04:38:20.884Z,4.14
2023-02-21T04:38:53.392Z,4.15
2023-02-21T04:39:25.589Z,4.09
2023-02-21T04:40:00.338Z,4.13
2023-02-21T04:40:32.700Z,4.11
2023-02-21T04:41:05.390Z,4.11
2023-02-21T04:41:40.081Z,4.13
2023-02-21T04:42:12.315Z,4.15
2023-02-21T04:42:44.528Z,4.18
2023-02-21T04:43:21.173Z,4.21
2023-02-21T04:43:53.990Z,4.23
2023-02-21T04:44:26.296Z,4.20
2023-02-21T04:45:01.124Z,4.20
2023-02-21T04:45:34.274Z,4.21
2023-02-21T04:46:06.456Z,4.22
2023-02-21T04:46:41.209Z,4.22
2023-02-21T04:47:13.721Z,4.20
2023-02-21T04:47:46.063Z,4.19
2023-02-21T04:48:20.789Z,4.20
2023-02-21T04:48:53.968Z,4.19
2023-02-21T04:49:27.637Z,4.19
2023-02-21T04:50:02.463Z,4.20
2023-02-21T04:50:34.704Z,4.21
2023-02-21T04:51:15.051Z,4.21
2023-02-21T04:51:52.814Z,4.20
2023-02-21T04:52:24.992Z,4.19
2023-02-21T04:52:57.114Z,4.19
2023-02-21T04:53:31.875Z,4.20
2023-02-21T04:54:04.298Z,4.22
2023-02-21T04:54:36.378Z,4.22
2023-02-21T04:55:11.716Z,4.17
2023-02-21T04:55:44.097Z,4.18
2023-02-21T04:56:18.465Z,4.17
2023-02-21T04:56:53.289Z,4.17
2023-02-21T04:57:25.844Z,4.17
2023-02-21T04:57:57.939Z,4.19
2023-02-21T04:58:44.226Z,4.20
2023-02-21T04:59:17.304Z,4.15
2023-02-21T04:59:49.518Z,4.16
2023-02-21T05:00:24.905Z,4.19
2023-02-21T05:00:57.184Z,4.18
2023-02-21T05:01:31.605Z,4.18
2023-02-21T05:02:06.641Z,4.17
2023-02-21T05:02:38.780Z,4.16
2023-02-21T05:03:10.973Z,4.14
2023-02-21T05:03:45.667Z,4.13
2023-02-21T05:04:17.820Z,4.16
2023-02-21T05:04:50.090Z,4.18
2023-02-21T05:05:24.884Z,4.17
2023-02-21T05:05:57.089Z,4.17
2023-02-21T05:06:30.500Z,4.18
2023-02-21T05:07:08.612Z,4.15
2023-02-21T05:07:42.128Z,4.12
2023-02-21T05:08:14.234Z,4.18
2023-02-21T05:08:48.973Z,4.19
2023-02-21T05:09:21.067Z,4.18
2023-02-21T05:09:53.199Z,4.22
2023-02-21T05:10:43.601Z,4.18
2023-02-21T05:11:17.737Z,4.19
2023-02-21T05:11:52.638Z,4.26
2023-02-21T05:12:24.756Z,4.23
2023-02-21T05:12:57.186Z,4.20
2023-02-21T05:13:31.904Z,4.21
2023-02-21T05:14:04.527Z,4.21
2023-02-21T05:14:39.192Z,4.21
2023-02-21T05:15:14.075Z,4.22
2023-02-21T05:15:46.301Z,4.24
2023-02-21T05:16:22.153Z,4.22
2023-02-21T05:16:54.391Z,4.25
2023-02-21T05:17:28.076Z,4.20
2023-02-21T05:18:00.183Z,4.20
2023-02-21T05:18:35.007Z,4.21
2023-02-21T05:19:07.186Z,4.22
2023-02-21T05:19:39.349Z,4.25
2023-02-21T05:20:14.737Z,4.23
2023-02-21T05:20:46.975Z,4.22
2023-02-21T05:21:20.402Z,4.22
2023-02-21T05:21:55.076Z,4.20
2023-02-21T05:22:29.839Z,4.22
2023-02-21T05:23:08.225Z,4.21
2023-02-21T05:23:56.174Z,4.23
2023-02-21T05:24:30.319Z,4.22
2023-02-21T05:25:02.537Z,4.22
2023-02-21T05:25:37.243Z,4.18
2023-02-21T05:26:12.278Z,4.21
2023-02-21T05:26:44.357Z,4.19
2023-02-21T05:27:20.283Z,4.18
2023-02-21T05:27:53.648Z,4.20
2023-02-21T05:28:25.817Z,4.22
2023-02-21T05:29:00.565Z,4.20
2023-02-21T05:29:32.652Z,4.20
2023-02-21T05:30:06.371Z,4.20
2023-02-21T05:30:41.187Z,4.21
2023-02-21T05:31:13.500Z,4.19
2023-02-21T05:31:46.083Z,4.23
2023-02-21T05:32:23.135Z,4.22
2023-02-21T05:32:55.402Z,4.22
2023-02-21T05:33:27.868Z,4.23
2023-02-21T05:34:02.567Z,4.25
2023-02-21T05:34:34.711Z,4.25
2023-02-21T05:35:08.509Z,4.27
2023-02-21T05:35:43.271Z,4.24
2023-02-21T05:36:15.368Z,4.26
2023-02-21T05:36:47.512Z,4.25
2023-02-21T05:37:22.834Z,4.25
2023-02-21T05:37:57.586Z,4.26
2023-02-21T05:38:29.832Z,4.24
2023-02-21T05:39:04.610Z,4.25
2023-02-21T05:39:36.790Z,4.25
2023-02-21T05:40:12.220Z,4.27
2023-02-21T05:40:46.998Z,4.24
2023-02-21T05:41:19.866Z,4.23
2023-02-21T05:41:54.733Z,4.27
2023-02-21T05:42:27.105Z,4.27
2023-02-21T05:42:59.220Z,4.25
2023-02-21T05:43:33.902Z,4.28
2023-02-21T05:44:08.844Z,4.28
2023-02-21T05:44:40.952Z,4.27
2023-02-21T05:45:15.658Z,4.30
2023-02-21T05:45:47.865Z,4.28
2023-02-21T05:46:23.403Z,4.29
2023-02-21T05:46:58.286Z,4.29
2023-02-21T05:47:30.408Z,4.30
2023-02-21T05:48:02.949Z,4.29
2023-02-21T05:48:37.647Z,4.29
2023-02-21T05:49:09.805Z,4.29
2023-02-21T05:49:42.173Z,4.31
2023-02-21T05:50:16.887Z,4.29
2023-02-21T05:50:49.034Z,4.30
2023-02-21T05:51:21.684Z,4.32
2023-02-21T05:51:56.504Z,4.29
2023-02-21T05:52:28.748Z,4.32
2023-02-21T05:53:03.451Z,4.26
2023-02-21T05:53:38.143Z,4.27
2023-02-21T05:54:15.259Z,4.29
2023-02-21T05:54:49.954Z,4.27
2023-02-21T05:55:22.200Z,4.27
2023-02-21T05:55:54.298Z,4.28
2023-02-21T05:56:29.051Z,4.30
2023-02-21T05:57:01.171Z,4.30
2023-02-21T05:57:40.959Z,4.33
2023-02-21T05:58:13.274Z,4.30
2023-02-21T05:58:45.429Z,4.31
2023-02-21T05:59:22.150Z,4.29
2023-02-21T05:59:54.218Z,4.28
2023-02-21T06:00:28.231Z,4.29
2023-02-21T06:01:03.012Z,4.29
2023-02-21T06:01:35.464Z,4.33
2023-02-21T06:02:07.636Z,4.35
2023-02-21T06:02:42.362Z,4.36
2023-02-21T06:03:14.523Z,4.33
2023-02-21T06:03:46.919Z,4.37
2023-02-21T06:04:21.904Z,4.38
2023-02-21T06:04:54.087Z,4.38
2023-02-21T06:05:26.256Z,4.38
2023-02-21T06:06:00.915Z,4.37
2023-02-21T06:06:33.100Z,4.38
2023-02-21T06:07:07.814Z,4.36
2023-02-21T06:07:39.897Z,4.37
2023-02-21T06:08:14.564Z,4.36
2023-02-21T06:08:51.483Z,4.37
2023-02-21T06:09:23.725Z,4.36
2023-02-21T06:09:55.803Z,4.36
2023-02-21T06:10:30.534Z,4.37
2023-02-21T06:11:02.612Z,4.39
2023-02-21T06:11:37.801Z,4.43
2023-02-21T06:12:12.733Z,4.43
2023-02-21T06:12:44.921Z,4.45
2023-02-21T06:13:17.043Z,4.47
2023-02-21T06:13:53.292Z,4.47
2023-02-21T06:14:27.035Z,4.46
2023-02-21T06:14:59.283Z,4.45
2023-02-21T06:15:34.013Z,4.45
2023-02-21T06:16:06.909Z,4.45
2023-02-21T06:16:39.569Z,4.48
2023-02-21T06:17:14.238Z,4.49
2023-02-21T06:17:46.471Z,4.49
2023-02-21T06:18:18.710Z,4.51
2023-02-21T06:18:54.520Z,4.55
2023-02-21T06:19:26.593Z,4.55
2023-02-21T06:19:58.695Z,4.55
2023-02-21T06:20:33.457Z,4.56
2023-02-21T06:21:06.069Z,4.57
2023-02-21T06:21:40.789Z,4.59
2023-02-21T06:22:12.866Z,4.58
2023-02-21T06:22:45.057Z,4.56
2023-02-21T06:23:22.462Z,4.54
2023-02-21T06:23:54.690Z,4.57
2023-02-21T06:24:26.794Z,4.57
2023-02-21T06:25:01.471Z,4.56
2023-02-21T06:25:33.611Z,4.57
2023-02-21T06:26:05.986Z,4.57
2023-02-21T06:26:41.248Z,4.58
2023-02-21T06:27:13.334Z,4.59
2023-02-21T06:27:45.412Z,4.60
2023-02-21T06:28:20.188Z,4.60
2023-02-21T06:28:52.453Z,4.57
2023-02-21T06:29:24.570Z,4.61
2023-02-21T06:29:59.227Z,4.64
2023-02-21T06:30:31.406Z,4.63
2023-02-21T06:31:04.418Z,4.65
2023-02-21T06:31:39.360Z,4.67
2023-02-21T06:32:11.580Z,4.68
2023-02-21T06:32:43.847Z,4.69
2023-02-21T06:33:18.553Z,4.70
2023-02-21T06:33:50.868Z,4.72
2023-02-21T06:34:25.700Z,4.71
2023-02-21T06:34:57.852Z,4.74
2023-02-21T06:35:29.980Z,4.75
2023-02-21T06:36:08.748Z,4.75
2023-02-21T06:36:40.902Z,4.73
2023-02-21T06:37:13.252Z,4.74
2023-02-21T06:37:47.941Z,4.79
2023-02-21T06:38:23.048Z,4.82
2023-02-21T06:38:57.342Z,4.85
2023-02-21T06:39:32.032Z,4.88
2023-02-21T06:40:05.213Z,4.88
2023-02-21T06:40:37.417Z,4.90
2023-02-21T06:41:12.504Z,4.90
2023-02-21T06:41:44.821Z,4.91
2023-02-21T06:42:18.341Z,4.93
2023-02-21T06:42:53.104Z,4.89
2023-02-21T06:43:25.200Z,4.92
2023-02-21T06:43:58.939Z,4.95
2023-02-21T06:44:33.621Z,4.97
2023-02-21T06:45:06.617Z,4.98
2023-02-21T06:45:38.842Z,5.01
2023-02-21T06:46:18.146Z,5.02
2023-02-21T06:46:50.729Z,5.02
2023-02-21T06:47:22.935Z,5.03
2023-02-21T06:47:57.607Z,5.05
2023-02-21T06:48:29.811Z,5.05
2023-02-21T06:49:02.287Z,5.06
2023-02-21T06:49:37.010Z,5.05
2023-02-21T06:50:10.406Z,5.04
2023-02-21T06:50:45.157Z,5.04
2023-02-21T06:51:17.837Z,5.04
2023-02-21T06:51:49.981Z,5.04
2023-02-21T06:52:24.763Z,5.06
2023-02-21T06:52:56.946Z,5.05
2023-02-21T06:53:31.724Z,5.09
2023-02-21T06:54:08.025Z,5.09
2023-02-21T06:54:40.268Z,5.06
2023-02-21T06:55:12.568Z,5.10
2023-02-21T06:55:49.025Z,5.10
2023-02-21T06:56:21.184Z,5.14
2023-02-21T06:56:55.947Z,5.16
2023-02-21T06:57:28.053Z,5.20
2023-02-21T06:58:00.180Z,5.22
2023-02-21T06:58:34.938Z,5.23
2023-02-21T06:59:07.296Z,5.22
2023-02-21T06:59:42.037Z,5.23
2023-02-21T07:00:15.980Z,5.22
2023-02-21T07:00:48.174Z,5.20
2023-02-21T07:01:23.907Z,5.19
2023-02-21T07:01:56.152Z,5.19
2023-02-21T07:02:28.474Z,5.18
2023-02-21T07:03:03.180Z,5.20
2023-02-21T07:03:38.877Z,5.17
2023-02-21T07:04:13.573Z,5.16
2023-02-21T07:04:45.956Z,5.17
2023-02-21T07:05:18.554Z,5.18
2023-02-21T07:05:53.387Z,5.19
2023-02-21T07:06:26.827Z,5.22
2023-02-21T07:07:03.157Z,5.20
2023-02-21T07:07:35.428Z,5.22
2023-02-21T07:08:10.763Z,5.25
2023-02-21T07:08:45.451Z,5.23
2023-02-21T07:09:20.207Z,5.22
2023-02-21T07:09:52.281Z,5.23
2023-02-21T07:10:24.420Z,5.26
2023-02-21T07:10:59.763Z,5.29
2023-02-21T07:11:33.735Z,5.28
2023-02-21T07:12:06.303Z,5.30
2023-02-21T07:12:40.941Z,5.32
2023-02-21T07:13:13.118Z,5.34
2023-02-21T07:13:47.896Z,5.34
2023-02-21T07:14:22.585Z,5.31
2023-02-21T07:14:54.704Z,5.34
2023-02-21T07:15:29.678Z,5.34
2023-02-21T07:16:02.154Z,5.36
2023-02-21T07:16:34.433Z,5.38
2023-02-21T07:17:09.800Z,5.37
2023-02-21T07:17:42.093Z,5.39
2023-02-21T07:18:16.876Z,5.35
2023-02-21T07:18:48.997Z,5.31
2023-02-21T07:19:21.241Z,5.33
2023-02-21T07:19:56.560Z,5.32
2023-02-21T07:20:28.746Z,5.37
2023-02-21T07:21:03.472Z,5.39
2023-02-21T07:21:35.631Z,5.37
2023-02-21T07:22:10.441Z,5.40
2023-02-21T07:22:42.512Z,5.40
2023-02-21T07:23:14.597Z,5.40
2023-02-21T07:23:52.100Z,5.41
2023-02-21T07:24:24.204Z,5.41
2023-02-21T07:24:59.704Z,5.47
2023-02-21T07:25:31.886Z,5.49
2023-02-21T07:26:06.598Z,5.50
2023-02-21T07:26:38.983Z,5.51
2023-02-21T07:27:11.104Z,5.55
2023-02-21T07:27:45.918Z,5.56
2023-02-21T07:28:18.855Z,5.55
2023-02-21T07:28:51.026Z,5.45
2023-02-21T07:29:25.804Z,5.48
2023-02-21T07:29:58.045Z,5.48
2023-02-21T07:30:34.563Z,5.52
2023-02-21T07:31:06.883Z,5.52
2023-02-21T07:31:41.712Z,5.53
2023-02-21T07:32:13.963Z,5.53
2023-02-21T07:32:48.856Z,5.51
2023-02-21T07:33:23.646Z,5.53
2023-02-21T07:33:55.758Z,5.54
2023-02-21T07:34:30.453Z,5.55
2023-02-21T07:35:02.682Z,5.56
2023-02-21T07:35:34.916Z,5.56
2023-02-21T07:36:10.564Z,5.56
2023-02-21T07:36:43.016Z,5.56
2023-02-21T07:37:15.454Z,5.54
2023-02-21T07:37:50.169Z,5.53
2023-02-21T07:38:23.316Z,5.48
2023-02-21T07:38:58.145Z,5.46
2023-02-21T07:39:32.808Z,5.45
2023-02-21T07:40:07.184Z,5.45
2023-02-21T07:40:41.828Z,5.46
2023-02-21T07:41:15.652Z,5.42
2023-02-21T07:41:50.588Z,5.41
2023-02-21T07:42:28.669Z,5.41
2023-02-21T07:43:03.372Z,5.45
2023-02-21T07:43:35.557Z,5.49
2023-02-21T07:44:10.587Z,5.50
2023-02-21T07:44:42.685Z,5.52
2023-02-21T07:45:15.887Z,5.54
2023-02-21T07:45:50.622Z,5.55
2023-02-21T07:46:27.697Z,5.58
2023-02-21T07:47:00.150Z,5.60
2023-02-21T07:47:34.903Z,5.63
2023-02-21T07:48:07.069Z,5.66
2023-02-21T07:48:39.319Z,5.69
2023-02-21T07:49:13.976Z,5.70
2023-02-21T07:49:46.062Z,5.70
2023-02-21T07:50:18.953Z,5.74
2023-02-21T07:50:53.659Z,5.77
2023-02-21T07:51:28.806Z,5.78
2023-02-21T07:52:03.494Z,5.80
2023-02-21T07:52:35.565Z,5.81
2023-02-21T07:53:09.662Z,5.82
2023-02-21T07:53:45.557Z,5.85
2023-02-21T07:54:20.313Z,5.84
2023-02-21T07:54:52.463Z,5.76
2023-02-21T07:55:27.240Z,5.80
2023-02-21T07:55:59.435Z,5.79
2023-02-21T07:56:34.132Z,5.80
2023-02-21T07:57:07.348Z,5.80
2023-02-21T07:57:42.151Z,5.84
2023-02-21T07:58:14.240Z,5.79
2023-02-21T07:58:46.421Z,5.80
2023-02-21T07:59:21.100Z,5.81
2023-02-21T07:59:53.403Z,5.85
2023-02-21T08:00:26.030Z,5.84
2023-02-21T08:01:00.676Z,5.86
2023-02-21T08:01:32.822Z,5.82
2023-02-21T08:02:08.100Z,5.82
2023-02-21T08:02:40.624Z,5.81
2023-02-21T08:03:13.604Z,5.78
2023-02-21T08:03:48.281Z,5.75
2023-02-21T08:04:21.381Z,5.77
2023-02-21T08:04:53.716Z,5.77
2023-02-21T08:05:28.796Z,5.78
2023-02-21T08:06:01.265Z,5.75
2023-02-21T08:06:37.426Z,5.76
2023-02-21T08:07:09.817Z,5.70
2023-02-21T08:07:42.007Z,5.75
2023-02-21T08:08:17.928Z,5.78
2023-02-21T08:08:50.018Z,5.75
2023-02-21T08:09:27.296Z,5.77
2023-02-21T08:09:59.493Z,5.75
2023-02-21T08:10:34.166Z,5.75
2023-02-21T08:11:06.588Z,5.79
2023-02-21T08:11:41.385Z,5.83
2023-02-21T08:12:13.508Z,5.85
2023-02-21T08:12:48.274Z,5.88
2023-02-21T08:13:20.391Z,5.93
2023-02-21T08:13:52.539Z,5.94
2023-02-21T08:14:29.681Z,5.96
2023-02-21T08:15:01.841Z,5.95
2023-02-21T08:15:36.687Z,5.96
2023-02-21T08:16:08.830Z,6.00
2023-02-21T08:16:40.937Z,5.99
2023-02-21T08:17:16.547Z,6.03
2023-02-21T08:17:49.350Z,6.01
2023-02-21T08:18:26.499Z,6.00
2023-02-21T08:18:58.716Z,5.94
2023-02-21T08:19:33.365Z,5.94
2023-02-21T08:20:07.005Z,5.95
2023-02-21T08:20:41.652Z,5.95
2023-02-21T08:21:14.213Z,5.99
2023-02-21T08:21:47.580Z,5.97
2023-02-21T08:22:22.546Z,5.97
2023-02-21T08:22:54.623Z,5.94
2023-02-21T08:23:27.079Z,5.96
2023-02-21T08:24:01.797Z,5.97
2023-02-21T08:24:36.462Z,6.00
2023-02-21T08:25:13.065Z,6.03
2023-02-21T08:25:45.540Z,5.99
2023-02-21T08:26:20.192Z,6.02
2023-02-21T08:26:52.633Z,6.00
2023-02-21T08:27:27.337Z,6.00
2023-02-21T08:27:59.428Z,6.01
2023-02-21T08:28:34.158Z,6.03
2023-02-21T08:29:06.264Z,6.02
2023-02-21T08:29:40.683Z,6.01
2023-02-21T08:30:19.346Z,6.03